Time;durP1;ratioP1;P1;durP2;ratioP2;P2;SDS_P1;SDS_P2;PMS_P1;PMS_P2;Temp;Humidity;BMP_temperature;BMP_pressure;BME280_temperature;BME280_humidity;BME280_pressure;Samples;Min_cycle;Max_cycle;Signal;HPM_P1;HPM_P2
2022/07/06 00:00:29;;;;;;;9.38;8.40;;;15.70;99.90;;;;;;2113763;28;20023;-68
2022/07/06 00:01:30;;;;;;;9.07;8.18;;;15.60;99.90;;;;;;2113146;28;20023;-67
2022/07/06 00:02:30;;;;;;;9.57;7.80;;;15.60;99.90;;;;;;2113099;28;20023;-69
2022/07/06 00:03:31;;;;;;;9.18;8.23;;;15.60;99.90;;;;;;2114066;28;20035;-66
2022/07/06 00:04:32;;;;;;;9.57;7.97;;;15.60;99.90;;;;;;2114136;28;20034;-68
2022/07/06 00:05:32;;;;;;;10.23;8.38;;;15.60;99.90;;;;;;2114451;28;20106;-67
2022/07/06 00:06:34;;;;;;;9.10;7.93;;;15.60;99.90;;;;;;2114107;28;20034;-67
2022/07/06 00:07:34;;;;;;;9.00;7.57;;;15.60;99.90;;;;;;2105219;28;20028;-68
2022/07/06 00:08:35;;;;;;;9.45;8.35;;;15.60;99.90;;;;;;2113487;28;20042;-66
2022/07/06 00:09:36;;;;;;;9.23;8.13;;;15.60;99.90;;;;;;2113977;28;20026;-67
2022/07/06 00:10:36;;;;;;;9.70;8.05;;;15.70;99.90;;;;;;2112724;28;20035;-69
2022/07/06 00:11:37;;;;;;;8.52;7.75;;;15.70;99.90;;;;;;2113372;28;20024;-69
2022/07/06 00:12:38;;;;;;;9.18;8.23;;;15.60;99.90;;;;;;2113316;28;20024;-66
2022/07/06 00:13:39;;;;;;;9.20;7.93;;;15.60;99.90;;;;;;2112697;28;20071;-68
2022/07/06 00:14:39;;;;;;;9.05;7.57;;;15.60;99.90;;;;;;2112463;28;20028;-69
2022/07/06 00:15:40;;;;;;;8.70;7.80;;;15.60;99.90;;;;;;2112357;28;20020;-69
2022/07/06 00:16:41;;;;;;;8.15;7.35;;;15.50;99.90;;;;;;2112201;28;20121;-68
2022/07/06 00:17:42;;;;;;;8.15;7.35;;;15.50;99.90;;;;;;2112252;28;20511;-68
2022/07/06 00:18:42;;;;;;;8.75;7.93;;;15.50;99.90;;;;;;2112389;28;20051;-67
2022/07/06 00:19:43;;;;;;;9.25;7.75;;;15.40;99.90;;;;;;2112947;28;20445;-67
2022/07/06 00:20:44;;;;;;;8.70;7.90;;;15.50;99.90;;;;;;2112151;28;20416;-67
2022/07/06 00:21:44;;;;;;;9.23;8.13;;;15.50;99.90;;;;;;2111751;28;20102;-67
2022/07/06 00:22:45;;;;;;;9.43;8.40;;;15.50;99.90;;;;;;2112090;28;20487;-67
2022/07/06 00:23:46;;;;;;;8.90;8.00;;;15.50;99.90;;;;;;2112169;28;20027;-68
2022/07/06 00:24:46;;;;;;;9.82;8.82;;;15.50;99.90;;;;;;2112769;28;20035;-67
2022/07/06 00:25:48;;;;;;;10.00;8.45;;;15.60;99.90;;;;;;2112709;28;20111;-67
2022/07/06 00:26:48;;;;;;;11.48;9.38;;;15.60;99.90;;;;;;2113025;28;20024;-67
2022/07/06 00:27:49;;;;;;;10.95;9.05;;;15.60;99.90;;;;;;2112961;28;20028;-66
2022/07/06 00:28:50;;;;;;;10.32;9.10;;;15.60;99.90;;;;;;2112043;28;20039;-67
2022/07/06 00:29:50;;;;;;;12.77;9.20;;;15.60;99.90;;;;;;2112247;28;20123;-67
2022/07/06 00:30:52;;;;;;;10.65;8.60;;;15.50;99.90;;;;;;2111964;28;20023;-69
2022/07/06 00:31:53;;;;;;;9.57;8.32;;;15.40;99.90;;;;;;2111687;28;20023;-68
2022/07/06 00:32:53;;;;;;;9.38;8.48;;;15.40;99.90;;;;;;2112393;28;20020;-67
2022/07/06 00:33:54;;;;;;;9.52;8.63;;;15.40;99.90;;;;;;2112335;28;20097;-67
2022/07/06 00:34:55;;;;;;;9.82;8.75;;;15.30;99.90;;;;;;2112122;28;20032;-67
2022/07/06 00:35:55;;;;;;;10.82;9.02;;;15.30;99.90;;;;;;2103951;28;20070;-68
2022/07/06 00:36:56;;;;;;;12.18;9.40;;;15.30;99.90;;;;;;2104011;28;20023;-67
2022/07/06 00:37:57;;;;;;;10.02;9.02;;;15.40;99.90;;;;;;2112268;28;20106;-66
2022/07/06 00:38:57;;;;;;;10.65;8.93;;;15.40;99.90;;;;;;2112999;28;20524;-69
2022/07/06 00:39:59;;;;;;;9.57;8.57;;;15.40;99.90;;;;;;2112863;28;20012;-67
2022/07/06 00:40:59;;;;;;;11.95;9.30;;;15.40;99.90;;;;;;2111699;28;20039;-69
2022/07/06 00:42:00;;;;;;;9.95;9.00;;;15.40;99.90;;;;;;2112379;28;20052;-68
2022/07/06 00:43:01;;;;;;;9.60;8.70;;;15.50;99.90;;;;;;2113041;28;20381;-68
2022/07/06 00:44:07;;;;;;;9.48;8.60;;;15.50;99.90;;;;;;2112077;28;20039;-67
2022/07/06 00:45:09;;;;;;;9.52;8.52;;;15.40;99.90;;;;;;2112254;28;20051;-68
2022/07/06 00:46:09;;;;;;;8.93;8.02;;;15.40;99.90;;;;;;2112184;28;20035;-67
2022/07/06 00:47:10;;;;;;;8.98;8.18;;;15.40;99.90;;;;;;2112302;28;20542;-66
2022/07/06 00:48:12;;;;;;;9.55;8.60;;;15.40;99.90;;;;;;2112508;28;20048;-67
2022/07/06 00:50:13;;;;;;;10.43;8.73;;;15.40;99.90;;;;;;2104267;28;20047;-67
2022/07/06 00:50:34;;;;;;;9.10;7.97;;;15.40;99.90;;;;;;2107018;28;20544;-67
2022/07/06 00:51:37;;;;;;;9.50;8.48;;;15.30;99.90;;;;;;2104287;28;20040;-66
2022/07/06 00:52:38;;;;;;;9.32;8.43;;;15.30;99.90;;;;;;2112812;28;20525;-67
2022/07/06 00:53:40;;;;;;;10.00;9.00;;;15.30;99.90;;;;;;2112820;28;20490;-67
2022/07/06 00:54:42;;;;;;;9.60;8.70;;;15.30;99.90;;;;;;2112948;28;20146;-67
2022/07/06 00:55:43;;;;;;;9.90;8.82;;;15.40;99.90;;;;;;2104842;28;20031;-69
2022/07/06 00:56:46;;;;;;;9.80;8.90;;;15.30;99.90;;;;;;2105726;28;20036;-67
2022/07/06 00:57:47;;;;;;;10.32;8.77;;;15.40;99.90;;;;;;2105080;28;20090;-67
2022/07/06 00:58:48;;;;;;;9.60;8.60;;;15.40;99.90;;;;;;2113329;28;20036;-67
2022/07/06 00:59:49;;;;;;;8.80;8.00;;;15.30;99.90;;;;;;2113380;28;20095;-67
2022/07/06 01:00:49;;;;;;;9.23;8.32;;;15.30;99.90;;;;;;2104455;28;20039;-69
2022/07/06 01:01:50;;;;;;;8.75;7.85;;;15.30;99.90;;;;;;2104132;28;20091;-68
2022/07/06 01:02:52;;;;;;;8.43;7.63;;;15.40;99.90;;;;;;2113722;28;20028;-68
2022/07/06 01:03:53;;;;;;;8.75;7.85;;;15.30;99.90;;;;;;2113119;28;20035;-69
2022/07/06 01:04:53;;;;;;;8.50;7.70;;;15.30;99.90;;;;;;2113965;28;20056;-68
2022/07/06 01:05:54;;;;;;;9.68;8.40;;;15.30;99.90;;;;;;2113561;28;20046;-69
2022/07/06 01:06:57;;;;;;;9.10;8.15;;;15.30;99.90;;;;;;2114338;28;20035;-69
2022/07/06 01:07:57;;;;;;;8.48;7.68;;;15.30;99.90;;;;;;2115799;28;20027;-68
2022/07/06 01:08:59;;;;;;;8.43;7.65;;;15.20;99.90;;;;;;2113215;28;20023;-68
2022/07/06 01:10:02;;;;;;;9.00;7.70;;;15.20;99.90;;;;;;2113044;28;20737;-66
2022/07/06 01:11:03;;;;;;;8.55;7.75;;;15.20;99.90;;;;;;2112368;28;20043;-67
2022/07/06 01:12:04;;;;;;;8.30;7.50;;;15.20;99.90;;;;;;2103701;28;20032;-68
2022/07/06 01:13:05;;;;;;;8.63;7.82;;;15.20;99.90;;;;;;2103876;28;20051;-67
2022/07/06 01:14:07;;;;;;;8.52;7.72;;;15.20;99.90;;;;;;2103844;28;20770;-69
2022/07/06 01:15:11;;;;;;;13.23;8.20;;;15.20;99.90;;;;;;2112062;28;20800;-68
2022/07/06 01:16:11;;;;;;;8.73;7.85;;;15.20;99.90;;;;;;2112057;28;20023;-67
2022/07/06 01:17:14;;;;;;;8.27;7.57;;;15.20;99.90;;;;;;2103674;28;20515;-66
2022/07/06 01:18:15;;;;;;;9.60;8.38;;;15.20;99.90;;;;;;2103330;28;20027;-67
2022/07/06 01:19:16;;;;;;;8.80;8.00;;;15.20;99.90;;;;;;2095463;28;20020;-69
2022/07/06 01:20:18;;;;;;;9.32;8.30;;;15.30;99.90;;;;;;2103590;28;20624;-68
2022/07/06 01:21:19;;;;;;;9.10;8.20;;;15.30;99.90;;;;;;2111988;28;20020;-67
2022/07/06 01:22:19;;;;;;;9.40;8.40;;;15.30;99.90;;;;;;2103721;28;20028;-66
2022/07/06 01:23:20;;;;;;;10.02;8.70;;;15.30;99.90;;;;;;2103762;28;20020;-67
2022/07/06 01:24:21;;;;;;;9.35;8.35;;;15.30;99.90;;;;;;2103744;28;20486;-66
2022/07/06 01:25:21;;;;;;;9.15;8.27;;;15.40;99.90;;;;;;2103810;28;20027;-68
2022/07/06 01:26:23;;;;;;;9.65;8.75;;;15.30;99.90;;;;;;2103670;28;20024;-66
2022/07/06 01:27:23;;;;;;;8.90;8.10;;;15.40;99.90;;;;;;2103668;28;20028;-69
2022/07/06 01:28:24;;;;;;;9.13;8.32;;;15.40;99.90;;;;;;2103450;28;20138;-67
2022/07/06 01:29:25;;;;;;;9.45;8.55;;;15.40;99.90;;;;;;2103510;28;20131;-68
2022/07/06 01:30:26;;;;;;;10.05;9.07;;;15.40;99.90;;;;;;2103460;28;20035;-66
2022/07/06 01:31:27;;;;;;;9.57;8.68;;;15.40;99.90;;;;;;2111899;28;20027;-67
2022/07/06 01:32:28;;;;;;;10.45;9.15;;;15.40;99.90;;;;;;2112078;28;20043;-68
2022/07/06 01:33:28;;;;;;;9.80;8.90;;;15.50;99.90;;;;;;2112117;28;20111;-69
2022/07/06 01:34:29;;;;;;;10.15;9.10;;;15.50;99.90;;;;;;2102699;28;20052;-68
2022/07/06 01:35:33;;;;;;;9.60;8.70;;;15.50;99.90;;;;;;2112127;28;20046;-68
2022/07/06 01:36:33;;;;;;;9.23;8.32;;;15.50;99.90;;;;;;2112472;28;20031;-68
2022/07/06 01:37:37;;;;;;;8.85;8.00;;;15.50;99.90;;;;;;2112473;28;20917;-68
2022/07/06 01:38:49;;;;;;;8.30;7.50;;;15.50;99.90;;;;;;2111570;28;20057;-67
2022/07/06 01:39:49;;;;;;;8.80;7.90;;;15.50;99.90;;;;;;2104711;28;20043;-68
2022/07/06 01:40:50;;;;;;;8.40;7.70;;;15.40;99.90;;;;;;2111129;28;20024;-66
2022/07/06 01:41:51;;;;;;;9.40;8.40;;;15.50;99.90;;;;;;2112495;28;20020;-68
2022/07/06 01:42:52;;;;;;;9.95;8.90;;;15.40;99.90;;;;;;2111712;28;20038;-68
2022/07/06 01:43:54;;;;;;;9.80;8.52;;;15.40;99.90;;;;;;2111926;28;20028;-68
2022/07/06 01:44:55;;;;;;;9.93;8.93;;;15.50;99.90;;;;;;2103065;28;20061;-69
2022/07/06 01:45:56;;;;;;;9.60;8.60;;;15.50;99.90;;;;;;2103035;28;20576;-65
2022/07/06 01:46:56;;;;;;;9.45;8.35;;;15.40;99.90;;;;;;2111789;28;20090;-65
2022/07/06 01:47:57;;;;;;;10.20;8.20;;;15.40;99.90;;;;;;2111753;28;20054;-66
2022/07/06 01:48:58;;;;;;;9.68;8.43;;;15.40;99.90;;;;;;2111696;28;20047;-66
2022/07/06 01:50:00;;;;;;;9.35;8.27;;;15.40;99.90;;;;;;2103461;28;20087;-65
2022/07/06 01:51:02;;;;;;;9.27;8.40;;;15.40;99.90;;;;;;2103772;28;20543;-66
2022/07/06 01:52:03;;;;;;;8.35;7.55;;;15.40;99.90;;;;;;2103247;28;20119;-67
2022/07/06 01:53:04;;;;;;;8.60;7.78;;;15.40;99.90;;;;;;2104835;28;20024;-65
2022/07/06 01:54:04;;;;;;;9.68;7.13;;;15.40;99.90;;;;;;2113550;28;20042;-67
2022/07/06 01:55:05;;;;;;;8.85;7.95;;;15.30;99.90;;;;;;2113827;28;20123;-67
2022/07/06 01:56:09;;;;;;;8.45;7.65;;;15.30;99.90;;;;;;2113010;28;20027;-66
2022/07/06 01:57:10;;;;;;;8.65;7.85;;;15.30;99.90;;;;;;2103618;28;20031;-66
2022/07/06 01:58:12;;;;;;;8.98;8.18;;;15.30;99.90;;;;;;2104665;28;20036;-66
2022/07/06 01:59:13;;;;;;;8.82;7.93;;;15.20;99.90;;;;;;2113052;28;20028;-66
2022/07/06 02:00:14;;;;;;;8.50;7.57;;;15.20;99.90;;;;;;2112909;28;20034;-66
2022/07/06 02:01:20;;;;;;;7.93;7.20;;;15.10;99.90;;;;;;2113168;28;20020;-65
2022/07/06 02:02:20;;;;;;;8.05;7.28;;;15.10;99.90;;;;;;2104719;28;20099;-67
2022/07/06 02:03:21;;;;;;;8.07;7.32;;;15.10;99.90;;;;;;2102089;28;20028;-66
2022/07/06 02:04:22;;;;;;;8.15;7.35;;;15.10;99.90;;;;;;2104853;28;20056;-66
2022/07/06 02:05:22;;;;;;;7.60;6.85;;;15.10;99.90;;;;;;2112988;28;20038;-66
2022/07/06 02:06:23;;;;;;;8.13;7.32;;;15.10;99.90;;;;;;2104746;28;20024;-65
2022/07/06 02:07:24;;;;;;;7.88;7.07;;;15.00;99.90;;;;;;2104483;28;20154;-65
2022/07/06 02:08:25;;;;;;;7.30;6.70;;;15.00;99.90;;;;;;2113172;28;20111;-65
2022/07/06 02:09:25;;;;;;;7.70;7.00;;;15.00;99.90;;;;;;2112827;28;20157;-65
2022/07/06 02:10:26;;;;;;;8.40;7.47;;;15.00;99.90;;;;;;2113167;28;20032;-66
2022/07/06 02:11:28;;;;;;;8.23;7.30;;;15.00;99.90;;;;;;2112783;28;20028;-65
2022/07/06 02:12:29;;;;;;;7.82;7.07;;;15.00;99.90;;;;;;2113337;28;20032;-66
2022/07/06 02:13:30;;;;;;;8.38;7.57;;;15.00;99.90;;;;;;2113859;28;20038;-67
2022/07/06 02:14:30;;;;;;;8.73;7.93;;;15.00;99.90;;;;;;2113842;28;20140;-66
2022/07/06 02:15:32;;;;;;;8.30;7.40;;;15.00;99.90;;;;;;2113035;28;20027;-67
2022/07/06 02:16:33;;;;;;;7.93;7.22;;;15.00;99.90;;;;;;2113224;28;20020;-66
2022/07/06 02:17:33;;;;;;;7.72;6.93;;;15.00;99.90;;;;;;2113293;28;20132;-67
2022/07/06 02:18:34;;;;;;;8.23;7.47;;;15.00;99.90;;;;;;2112985;28;20118;-67
2022/07/06 02:19:34;;;;;;;8.48;7.75;;;15.00;99.90;;;;;;2113290;28;20054;-66
2022/07/06 02:20:36;;;;;;;8.75;7.85;;;15.00;99.90;;;;;;2105108;28;20081;-65
2022/07/06 02:21:36;;;;;;;8.27;7.40;;;15.00;99.90;;;;;;2104989;28;20036;-68
2022/07/06 02:22:37;;;;;;;8.27;7.47;;;15.00;99.90;;;;;;2113715;28;20477;-67
2022/07/06 02:23:38;;;;;;;8.18;7.40;;;15.10;99.90;;;;;;2113764;28;20027;-67
2022/07/06 02:24:39;;;;;;;8.70;7.88;;;15.10;99.90;;;;;;2105066;28;20027;-66
2022/07/06 02:25:40;;;;;;;8.48;7.68;;;15.10;99.90;;;;;;2104825;28;20032;-67
2022/07/06 02:26:40;;;;;;;8.45;7.63;;;15.10;99.90;;;;;;2113083;28;20047;-68
2022/07/06 02:27:41;;;;;;;8.20;7.40;;;15.10;99.90;;;;;;2113005;28;20024;-67
2022/07/06 02:28:46;;;;;;;8.45;7.65;;;15.10;99.90;;;;;;2104495;28;20047;-66
2022/07/06 02:29:46;;;;;;;9.20;8.30;;;15.10;99.90;;;;;;2097015;28;20474;-67
2022/07/06 02:30:47;;;;;;;9.02;8.13;;;15.10;99.90;;;;;;2104499;28;20031;-64
2022/07/06 02:31:48;;;;;;;11.00;8.00;;;15.10;99.90;;;;;;2112514;28;20024;-67
2022/07/06 02:32:49;;;;;;;9.07;8.18;;;15.10;99.90;;;;;;2113656;28;20020;-68
2022/07/06 02:33:50;;;;;;;8.25;7.55;;;15.10;99.90;;;;;;2112926;28;20023;-65
2022/07/06 02:34:50;;;;;;;9.23;8.13;;;15.10;99.90;;;;;;2112802;28;20433;-67
2022/07/06 02:35:53;;;;;;;8.40;7.53;;;15.10;99.90;;;;;;2104417;28;20082;-67
2022/07/06 02:36:54;;;;;;;8.95;8.05;;;15.10;99.90;;;;;;2104484;28;20495;-67
2022/07/06 02:37:55;;;;;;;9.15;8.15;;;15.20;99.90;;;;;;2104439;28;20119;-67
2022/07/06 02:38:55;;;;;;;9.30;8.40;;;15.20;99.90;;;;;;2104483;28;20116;-67
2022/07/06 02:39:56;;;;;;;8.77;7.90;;;15.20;99.90;;;;;;2104536;28;20490;-67
2022/07/06 02:40:57;;;;;;;9.82;7.95;;;15.20;99.90;;;;;;2112571;28;20024;-67
2022/07/06 02:41:57;;;;;;;8.15;7.43;;;15.20;99.90;;;;;;2113191;28;20078;-66
2022/07/06 02:42:58;;;;;;;8.13;7.32;;;15.20;99.90;;;;;;2112685;28;20034;-66
2022/07/06 02:43:59;;;;;;;8.20;7.40;;;15.20;99.90;;;;;;2113036;28;20096;-66
2022/07/06 02:44:59;;;;;;;8.13;7.43;;;15.10;99.90;;;;;;2113350;28;20612;-66
2022/07/06 02:46:00;;;;;;;8.27;7.50;;;15.10;99.90;;;;;;2112934;28;20032;-66
2022/07/06 02:47:02;;;;;;;8.40;7.68;;;15.10;99.90;;;;;;2104521;28;20024;-66
2022/07/06 02:48:03;;;;;;;8.40;7.60;;;15.10;99.90;;;;;;2096426;28;20032;-66
2022/07/06 02:49:04;;;;;;;8.15;7.45;;;15.00;99.90;;;;;;2102451;28;20111;-65
2022/07/06 02:50:05;;;;;;;8.82;8.02;;;15.00;99.90;;;;;;2104746;28;20020;-65
2022/07/06 02:51:06;;;;;;;8.68;7.78;;;15.00;99.90;;;;;;2113315;28;20099;-66
2022/07/06 02:52:07;;;;;;;8.52;7.72;;;15.00;99.90;;;;;;2112842;28;20039;-66
2022/07/06 02:53:09;;;;;;;8.95;8.05;;;15.00;99.90;;;;;;2104838;28;20069;-66
2022/07/06 02:54:10;;;;;;;9.38;7.97;;;15.00;99.90;;;;;;2104621;28;20085;-68
2022/07/06 02:55:11;;;;;;;8.52;7.72;;;15.00;99.90;;;;;;2096343;28;20058;-66
2022/07/06 02:56:11;;;;;;;9.23;8.32;;;15.00;99.90;;;;;;2104659;28;20127;-64
2022/07/06 02:57:12;;;;;;;8.68;7.85;;;15.00;99.90;;;;;;2113302;28;20055;-65
2022/07/06 02:58:12;;;;;;;10.05;8.25;;;14.90;99.90;;;;;;2104720;28;20032;-70
2022/07/06 02:59:13;;;;;;;8.70;7.90;;;14.90;99.90;;;;;;2104738;28;20031;-65
2022/07/06 03:00:14;;;;;;;9.48;7.70;;;14.90;99.90;;;;;;2105443;28;20028;-65
2022/07/06 03:01:15;;;;;;;8.82;7.93;;;14.90;99.90;;;;;;2098195;28;20029;-68
2022/07/06 03:02:17;;;;;;;9.63;8.63;;;15.00;99.90;;;;;;2097685;28;20024;-65
2022/07/06 03:03:17;;;;;;;9.70;8.70;;;15.00;99.90;;;;;;2107881;28;20483;-66
2022/07/06 03:04:18;;;;;;;8.57;7.78;;;15.00;99.90;;;;;;2107071;28;20035;-66
2022/07/06 03:05:20;;;;;;;9.63;8.63;;;15.00;99.90;;;;;;2115204;28;20027;-67
2022/07/06 03:06:21;;;;;;;9.68;8.77;;;15.00;99.90;;;;;;2107204;28;20437;-64
2022/07/06 03:07:21;;;;;;;9.75;8.60;;;15.00;99.90;;;;;;2107097;28;20501;-65
2022/07/06 03:08:23;;;;;;;9.40;8.40;;;15.00;99.90;;;;;;2114818;28;20095;-64
2022/07/06 03:09:24;;;;;;;12.55;8.73;;;15.00;99.90;;;;;;2115739;28;20495;-65
2022/07/06 03:10:25;;;;;;;9.73;8.73;;;15.00;99.90;;;;;;2114803;28;20027;-67
2022/07/06 03:11:25;;;;;;;9.88;8.43;;;15.00;99.90;;;;;;2115639;28;20050;-67
2022/07/06 03:12:26;;;;;;;9.18;8.35;;;15.10;99.90;;;;;;2115803;28;20016;-66
2022/07/06 03:13:28;;;;;;;9.52;8.20;;;15.10;99.90;;;;;;2115824;28;20031;-67
2022/07/06 03:14:29;;;;;;;9.07;8.27;;;15.10;99.90;;;;;;2114561;28;20210;-66
2022/07/06 03:15:30;;;;;;;9.30;8.38;;;15.10;99.90;;;;;;2115440;28;20037;-65
2022/07/06 03:16:33;;;;;;;9.88;8.95;;;15.20;99.90;;;;;;2106697;28;20512;-64
2022/07/06 03:17:34;;;;;;;9.30;8.40;;;15.20;99.90;;;;;;2115376;28;20092;-66
2022/07/06 03:18:34;;;;;;;9.38;8.38;;;15.20;99.90;;;;;;2107330;28;20032;-67
2022/07/06 03:19:35;;;;;;;8.73;7.93;;;15.20;99.90;;;;;;2115314;28;20465;-66
2022/07/06 03:20:37;;;;;;;8.82;7.85;;;15.20;99.90;;;;;;2107605;28;20551;-67
2022/07/06 03:21:37;;;;;;;8.80;7.90;;;15.20;99.90;;;;;;2107680;28;20028;-66
2022/07/06 03:22:38;;;;;;;8.98;8.15;;;15.20;99.90;;;;;;2119529;28;20043;-66
2022/07/06 03:23:39;;;;;;;9.07;8.18;;;15.20;99.90;;;;;;2110298;28;20075;-66
2022/07/06 03:24:40;;;;;;;9.02;7.88;;;15.20;99.90;;;;;;2113230;28;20023;-66
2022/07/06 03:25:42;;;;;;;9.10;8.30;;;15.20;99.90;;;;;;2113308;28;20027;-66
2022/07/06 03:26:43;;;;;;;8.75;7.90;;;15.20;99.90;;;;;;2112811;28;20477;-65
2022/07/06 03:27:45;;;;;;;8.95;7.97;;;15.20;99.90;;;;;;2104578;28;20029;-64
2022/07/06 03:28:49;;;;;;;9.25;8.35;;;15.20;99.90;;;;;;2104595;28;20043;-66
2022/07/06 03:29:50;;;;;;;8.85;7.93;;;15.20;99.90;;;;;;2104389;28;20060;-66
2022/07/06 03:30:52;;;;;;;9.27;7.57;;;15.20;99.90;;;;;;2104292;28;20503;-66
2022/07/06 03:31:53;;;;;;;9.05;8.15;;;15.20;99.90;;;;;;2104067;28;20024;-66
2022/07/06 03:32:53;;;;;;;8.43;7.63;;;15.20;99.90;;;;;;2112846;28;20027;-66
2022/07/06 03:33:55;;;;;;;8.52;7.63;;;15.30;99.90;;;;;;2112830;28;20023;-67
2022/07/06 03:34:56;;;;;;;8.68;7.88;;;15.30;99.90;;;;;;2112650;28;20033;-66
2022/07/06 03:35:57;;;;;;;8.75;7.93;;;15.30;99.90;;;;;;2112889;28;20077;-65
2022/07/06 03:36:58;;;;;;;9.45;8.40;;;15.30;99.90;;;;;;2112900;28;20027;-65
2022/07/06 03:37:59;;;;;;;9.07;8.18;;;15.40;99.90;;;;;;2112392;28;20073;-67
2022/07/06 03:39:03;;;;;;;8.70;7.90;;;15.40;99.90;;;;;;2104672;28;20043;-64
2022/07/06 03:40:05;;;;;;;9.73;8.65;;;15.40;99.90;;;;;;2104280;28;20830;-65
2022/07/06 03:41:06;;;;;;;9.60;8.45;;;15.40;99.90;;;;;;2111564;28;20512;-64
2022/07/06 03:42:07;;;;;;;10.18;9.18;;;15.40;99.90;;;;;;2104097;28;20056;-66
2022/07/06 03:43:08;;;;;;;9.95;8.52;;;15.40;99.90;;;;;;2104142;28;20031;-65
2022/07/06 03:44:12;;;;;;;9.93;8.82;;;15.40;99.90;;;;;;2104477;28;20023;-65
2022/07/06 03:45:13;;;;;;;8.95;8.15;;;15.40;99.90;;;;;;2103847;28;20086;-64
2022/07/06 03:46:15;;;;;;;10.00;9.00;;;15.40;99.90;;;;;;2104023;28;20568;-64
2022/07/06 03:47:17;;;;;;;10.80;9.70;;;15.40;99.90;;;;;;2096849;28;20150;-65
2022/07/06 03:48:18;;;;;;;10.73;9.48;;;15.40;99.90;;;;;;2103956;28;20031;-65
2022/07/06 03:49:19;;;;;;;10.45;9.43;;;15.40;99.90;;;;;;2104020;28;20065;-66
2022/07/06 03:50:20;;;;;;;12.68;10.45;;;15.50;99.90;;;;;;2104143;28;20035;-64
2022/07/06 03:51:22;;;;;;;12.75;11.40;;;15.50;99.90;;;;;;2104005;28;20051;-65
2022/07/06 03:52:22;;;;;;;11.85;10.38;;;15.40;99.90;;;;;;2103902;28;20039;-65
2022/07/06 03:53:28;;;;;;;11.23;9.60;;;15.50;99.90;;;;;;2112548;28;20033;-67
2022/07/06 03:54:29;;;;;;;11.32;10.13;;;15.50;99.90;;;;;;2104118;28;20546;-65
2022/07/06 03:55:32;;;;;;;12.63;9.73;;;15.60;99.90;;;;;;2104426;28;20036;-66
2022/07/06 03:56:38;;;;;;;11.25;10.10;;;15.60;99.90;;;;;;2112286;28;20027;-65
2022/07/06 03:57:43;;;;;;;12.32;9.75;;;15.60;99.90;;;;;;2112638;28;20046;-66
2022/07/06 03:58:48;;;;;;;13.00;10.93;;;15.60;99.90;;;;;;2112248;28;20085;-67
2022/07/06 03:59:49;;;;;;;13.85;11.15;;;15.50;99.90;;;;;;2103852;28;20024;-68
2022/07/06 04:00:51;;;;;;;10.85;9.73;;;15.60;99.90;;;;;;2104013;28;20148;-65
2022/07/06 04:01:52;;;;;;;10.38;9.00;;;15.60;99.90;;;;;;2103862;28;20111;-66
2022/07/06 04:02:53;;;;;;;9.27;8.38;;;15.60;99.90;;;;;;2104083;28;20607;-66
2022/07/06 04:03:59;;;;;;;9.85;8.50;;;15.60;99.90;;;;;;2104560;28;20024;-64
2022/07/06 04:05:00;;;;;;;10.30;8.10;;;15.70;99.90;;;;;;2112581;28;20023;-65
2022/07/06 04:06:01;;;;;;;9.60;8.57;;;15.60;99.90;;;;;;2113511;28;20043;-65
2022/07/06 04:07:02;;;;;;;12.40;8.52;;;15.60;99.90;;;;;;2113310;28;20028;-67
2022/07/06 04:08:03;;;;;;;8.50;7.60;;;15.60;99.90;;;;;;2112442;28;20107;-67
2022/07/06 04:09:11;;;;;;;9.38;7.93;;;15.60;99.90;;;;;;2104957;28;20028;-66
2022/07/06 04:10:12;;;;;;;8.25;7.38;;;15.50;99.90;;;;;;2112404;28;20464;-66
2022/07/06 04:11:13;;;;;;;8.95;7.25;;;15.50;99.90;;;;;;2112421;28;20034;-67
2022/07/06 04:12:14;;;;;;;9.32;8.35;;;15.60;99.90;;;;;;2111773;28;20036;-65
2022/07/06 04:13:15;;;;;;;8.32;7.53;;;15.60;99.90;;;;;;2104012;28;20081;-66
2022/07/06 04:14:16;;;;;;;7.78;7.03;;;15.50;99.90;;;;;;2103896;28;20244;-67
2022/07/06 04:15:17;;;;;;;9.75;8.48;;;15.50;99.90;;;;;;2103666;28;20133;-66
2022/07/06 04:16:18;;;;;;;11.95;10.52;;;15.50;99.90;;;;;;2104052;28;20075;-67
2022/07/06 04:18:38;;;;;;;11.23;10.02;;;15.60;99.90;;;;;;2112616;28;20581;-66
2022/07/06 04:19:40;;;;;;;12.55;10.55;;;15.60;99.90;;;;;;2112380;28;20473;-66
2022/07/06 04:20:41;;;;;;;11.48;9.95;;;15.60;99.90;;;;;;2112315;28;20039;-66
2022/07/06 04:21:42;;;;;;;9.68;8.70;;;15.50;99.90;;;;;;2103720;28;20032;-67
2022/07/06 04:22:43;;;;;;;9.98;8.10;;;15.60;99.90;;;;;;2104168;28;20040;-65
2022/07/06 04:23:44;;;;;;;8.38;7.65;;;15.60;99.90;;;;;;2112342;28;20070;-66
2022/07/06 04:24:48;;;;;;;10.20;8.15;;;15.60;99.90;;;;;;2112243;28;20728;-66
2022/07/06 04:25:50;;;;;;;13.48;9.70;;;15.60;99.90;;;;;;2104599;28;20623;-67
2022/07/06 04:26:50;;;;;;;9.38;8.45;;;15.50;99.90;;;;;;2103971;28;20032;-66
2022/07/06 04:27:51;;;;;;;10.32;8.18;;;15.40;99.90;;;;;;2103917;28;20020;-66
2022/07/06 04:28:52;;;;;;;9.43;8.43;;;15.50;99.90;;;;;;2103983;28;20032;-64
2022/07/06 04:29:53;;;;;;;11.02;8.43;;;15.50;99.90;;;;;;2104035;28;20028;-65
2022/07/06 04:30:54;;;;;;;9.93;7.97;;;15.40;99.90;;;;;;2095588;28;20089;-67
2022/07/06 04:31:58;;;;;;;7.97;7.18;;;15.50;99.90;;;;;;2103907;28;20118;-68
2022/07/06 04:32:58;;;;;;;9.75;7.70;;;15.60;99.90;;;;;;2103967;28;20020;-66
2022/07/06 04:34:03;;;;;;;10.45;7.88;;;15.60;99.90;;;;;;2104220;28;20024;-67
2022/07/06 04:35:05;;;;;;;11.35;8.10;;;15.70;99.90;;;;;;2103921;28;20110;-68
2022/07/06 04:36:06;;;;;;;9.23;7.97;;;15.70;99.90;;;;;;2104142;28;20030;-68
2022/07/06 04:37:13;;;;;;;9.10;8.15;;;15.70;99.90;;;;;;2104937;28;20046;-65
2022/07/06 04:38:14;;;;;;;7.95;6.60;;;15.80;99.90;;;;;;2103780;28;20781;-66
2022/07/06 04:39:15;;;;;;;9.75;7.55;;;16.00;99.90;;;;;;2112293;28;20043;-65
2022/07/06 04:40:16;;;;;;;10.25;6.70;;;16.10;99.90;;;;;;2103220;28;20032;-68
2022/07/06 04:41:17;;;;;;;8.70;7.05;;;16.20;99.90;;;;;;2112352;28;20022;-67
2022/07/06 04:42:18;;;;;;;10.35;6.40;;;16.20;99.90;;;;;;2112011;28;20019;-67
2022/07/06 04:43:19;;;;;;;9.13;6.13;;;16.30;99.90;;;;;;2103665;28;20039;-68
2022/07/06 04:44:20;;;;;;;6.85;6.15;;;16.40;99.90;;;;;;2104066;28;20026;-66
2022/07/06 04:45:20;;;;;;;7.97;5.93;;;16.50;99.90;;;;;;2103473;28;20086;-66
2022/07/06 04:46:21;;;;;;;9.50;5.93;;;16.60;99.90;;;;;;2103944;28;20170;-67
2022/07/06 04:47:25;;;;;;;8.98;5.60;;;16.80;99.90;;;;;;2104113;28;20021;-66
2022/07/06 04:48:26;;;;;;;5.78;5.05;;;17.00;99.90;;;;;;2112216;28;20028;-67
2022/07/06 04:49:27;;;;;;;7.80;5.65;;;17.00;99.90;;;;;;2111909;28;20051;-67
2022/07/06 04:50:28;;;;;;;8.10;5.60;;;17.10;99.90;;;;;;2103617;28;20051;-68
2022/07/06 04:51:33;;;;;;;6.57;5.43;;;17.10;99.90;;;;;;2104346;28;20036;-66
2022/07/06 04:52:34;;;;;;;7.70;5.57;;;17.10;99.90;;;;;;2112309;28;20101;-66
2022/07/06 04:53:36;;;;;;;10.45;5.60;;;17.20;99.90;;;;;;2104043;28;20016;-65
2022/07/06 04:54:37;;;;;;;9.00;5.85;;;17.40;99.90;;;;;;2103848;28;20024;-66
2022/07/06 04:55:38;;;;;;;11.50;5.57;;;17.60;99.90;;;;;;2103843;28;20032;-66
2022/07/06 04:56:39;;;;;;;6.18;4.90;;;17.90;99.90;;;;;;2095234;28;20135;-66
2022/07/06 04:57:40;;;;;;;5.50;4.90;;;18.10;99.90;;;;;;2103926;28;20055;-66
2022/07/06 04:58:41;;;;;;;5.82;4.53;;;18.20;99.90;;;;;;2103665;28;20034;-65
2022/07/06 04:59:44;;;;;;;6.47;4.30;;;18.20;99.90;;;;;;2103859;28;20038;-65
2022/07/06 05:00:44;;;;;;;7.45;4.75;;;18.40;99.90;;;;;;2103610;28;20119;-67
2022/07/06 05:01:45;;;;;;;6.75;4.47;;;18.60;99.90;;;;;;2103456;28;20016;-68
2022/07/06 05:02:46;;;;;;;6.78;4.82;;;18.70;99.90;;;;;;2103637;28;20088;-67
2022/07/06 05:03:47;;;;;;;9.07;4.65;;;18.80;99.90;;;;;;2103500;28;20490;-67
2022/07/06 05:04:49;;;;;;;8.93;4.60;;;18.90;99.90;;;;;;2103734;28;20511;-68
2022/07/06 05:05:49;;;;;;;8.07;4.30;;;19.10;99.90;;;;;;2112122;28;20023;-67
2022/07/06 05:06:50;;;;;;;5.88;3.90;;;19.30;99.90;;;;;;2112000;28;20394;-67
2022/07/06 05:07:51;;;;;;;3.65;3.35;;;19.60;99.90;;;;;;2112050;28;20729;-66
2022/07/06 05:08:52;;;;;;;5.28;3.75;;;19.80;99.90;;;;;;2112612;28;20094;-67
2022/07/06 05:09:53;;;;;;;6.68;4.50;;;19.90;99.90;;;;;;2112339;28;20077;-67
2022/07/06 05:10:54;;;;;;;6.28;4.40;;;20.00;99.90;;;;;;2103517;28;20516;-67
2022/07/06 05:11:56;;;;;;;5.88;4.20;;;19.80;99.90;;;;;;2103473;28;20394;-66
2022/07/06 05:12:57;;;;;;;4.50;3.80;;;19.70;99.90;;;;;;2103756;28;20032;-67
2022/07/06 05:13:59;;;;;;;4.93;4.20;;;19.70;99.90;;;;;;2103927;28;20024;-66
2022/07/06 05:15:00;;;;;;;6.03;4.10;;;19.90;99.90;;;;;;2112319;28;20047;-66
2022/07/06 05:16:01;;;;;;;5.32;3.30;;;20.00;99.90;;;;;;2112221;28;20027;-66
2022/07/06 05:17:02;;;;;;;7.93;3.35;;;20.30;99.90;;;;;;2112176;28;20051;-66
2022/07/06 05:18:03;;;;;;;4.30;3.45;;;20.60;99.90;;;;;;2103879;28;20658;-66
2022/07/06 05:19:04;;;;;;;5.82;3.80;;;20.90;99.90;;;;;;2103978;28;20032;-65
2022/07/06 05:20:06;;;;;;;4.68;3.67;;;20.80;99.90;;;;;;2112375;28;20476;-68